sensor_id;sensor_type;location;lat;lon;timestamp;P1;durP1;ratioP1;P2;durP2;ratioP2
13580;SDS011;6861;46.170;7.222;2023-06-19T00:01:57;4.63;;;3.95;;
13580;SDS011;6861;46.170;7.222;2023-06-19T00:04:25;6.50;;;4.45;;
13580;SDS011;6861;46.170;7.222;2023-06-19T00:06:54;5.47;;;4.20;;
13580;SDS011;6861;46.170;7.222;2023-06-19T00:09:22;6.70;;;3.85;;
13580;SDS011;6861;46.170;7.222;2023-06-19T00:11:50;3.97;;;3.60;;
13580;SDS011;6861;46.170;7.222;2023-06-19T00:14:20;4.45;;;4.00;;
13580;SDS011;6861;46.170;7.222;2023-06-19T00:16:48;5.05;;;3.95;;
13580;SDS011;6861;46.170;7.222;2023-06-19T00:19:17;5.25;;;3.88;;
13580;SDS011;6861;46.170;7.222;2023-06-19T00:21:45;4.78;;;4.10;;
13580;SDS011;6861;46.170;7.222;2023-06-19T00:24:13;4.95;;;4.43;;
13580;SDS011;6861;46.170;7.222;2023-06-19T00:26:41;4.82;;;3.80;;
13580;SDS011;6861;46.170;7.222;2023-06-19T00:29:10;4.07;;;3.45;;
13580;SDS011;6861;46.170;7.222;2023-06-19T00:31:39;4.93;;;3.67;;
13580;SDS011;6861;46.170;7.222;2023-06-19T00:34:08;4.22;;;3.90;;
13580;SDS011;6861;46.170;7.222;2023-06-19T00:36:36;3.92;;;3.60;;
13580;SDS011;6861;46.170;7.222;2023-06-19T00:39:07;3.90;;;3.60;;
13580;SDS011;6861;46.170;7.222;2023-06-19T00:41:35;5.35;;;4.00;;
13580;SDS011;6861;46.170;7.222;2023-06-19T00:44:04;4.28;;;3.88;;
13580;SDS011;6861;46.170;7.222;2023-06-19T00:46:32;6.80;;;3.53;;
13580;SDS011;6861;46.170;7.222;2023-06-19T00:49:04;5.00;;;3.70;;
13580;SDS011;6861;46.170;7.222;2023-06-19T00:51:32;4.85;;;3.63;;
13580;SDS011;6861;46.170;7.222;2023-06-19T00:54:00;4.03;;;3.50;;
13580;SDS011;6861;46.170;7.222;2023-06-19T00:56:29;4.20;;;3.50;;
13580;SDS011;6861;46.170;7.222;2023-06-19T00:58:57;5.72;;;3.47;;
13580;SDS011;6861;46.170;7.222;2023-06-19T01:01:26;6.13;;;3.83;;
13580;SDS011;6861;46.170;7.222;2023-06-19T01:03:54;4.03;;;3.63;;
13580;SDS011;6861;46.170;7.222;2023-06-19T01:06:24;4.90;;;3.40;;
13580;SDS011;6861;46.170;7.222;2023-06-19T01:09:05;4.07;;;3.67;;
13580;SDS011;6861;46.170;7.222;2023-06-19T01:11:39;4.65;;;3.80;;
13580;SDS011;6861;46.170;7.222;2023-06-19T01:14:12;4.18;;;3.78;;
13580;SDS011;6861;46.170;7.222;2023-06-19T01:16:44;4.00;;;3.60;;
13580;SDS011;6861;46.170;7.222;2023-06-19T01:19:15;4.53;;;3.70;;
13580;SDS011;6861;46.170;7.222;2023-06-19T01:21:48;4.65;;;3.83;;
13580;SDS011;6861;46.170;7.222;2023-06-19T01:24:18;4.40;;;4.00;;
13580;SDS011;6861;46.170;7.222;2023-06-19T01:26:46;4.10;;;3.50;;
13580;SDS011;6861;46.170;7.222;2023-06-19T01:29:14;5.78;;;3.67;;
13580;SDS011;6861;46.170;7.222;2023-06-19T01:31:46;4.15;;;3.75;;
13580;SDS011;6861;46.170;7.222;2023-06-19T01:34:22;4.43;;;3.45;;
13580;SDS011;6861;46.170;7.222;2023-06-19T01:36:53;3.55;;;3.25;;
13580;SDS011;6861;46.170;7.222;2023-06-19T01:39:25;3.42;;;3.13;;
13580;SDS011;6861;46.170;7.222;2023-06-19T01:41:54;3.83;;;3.47;;
13580;SDS011;6861;46.170;7.222;2023-06-19T01:44:23;3.50;;;3.17;;
13580;SDS011;6861;46.170;7.222;2023-06-19T01:46:52;4.13;;;3.25;;
13580;SDS011;6861;46.170;7.222;2023-06-19T01:49:20;3.70;;;3.40;;
13580;SDS011;6861;46.170;7.222;2023-06-19T01:51:48;4.07;;;3.30;;
13580;SDS011;6861;46.170;7.222;2023-06-19T01:54:16;3.60;;;3.30;;
13580;SDS011;6861;46.170;7.222;2023-06-19T01:56:46;3.47;;;3.17;;
13580;SDS011;6861;46.170;7.222;2023-06-19T01:59:14;5.75;;;3.55;;
13580;SDS011;6861;46.170;7.222;2023-06-19T02:01:42;4.40;;;3.47;;
13580;SDS011;6861;46.170;7.222;2023-06-19T02:04:10;4.78;;;3.33;;
13580;SDS011;6861;46.170;7.222;2023-06-19T02:06:38;4.00;;;3.60;;
13580;SDS011;6861;46.170;7.222;2023-06-19T02:09:06;7.47;;;3.50;;
13580;SDS011;6861;46.170;7.222;2023-06-19T02:11:35;4.57;;;3.85;;
13580;SDS011;6861;46.170;7.222;2023-06-19T02:14:04;5.93;;;3.75;;
13580;SDS011;6861;46.170;7.222;2023-06-19T02:16:32;4.40;;;4.00;;
13580;SDS011;6861;46.170;7.222;2023-06-19T02:19:00;7.40;;;4.13;;
13580;SDS011;6861;46.170;7.222;2023-06-19T02:21:29;5.07;;;4.18;;
13580;SDS011;6861;46.170;7.222;2023-06-19T02:23:57;4.10;;;3.80;;
13580;SDS011;6861;46.170;7.222;2023-06-19T02:26:25;4.28;;;3.92;;
13580;SDS011;6861;46.170;7.222;2023-06-19T02:28:55;7.95;;;4.20;;
13580;SDS011;6861;46.170;7.222;2023-06-19T02:31:25;4.07;;;3.67;;
13580;SDS011;6861;46.170;7.222;2023-06-19T02:33:53;4.30;;;3.90;;
13580;SDS011;6861;46.170;7.222;2023-06-19T02:36:21;5.20;;;3.70;;
13580;SDS011;6861;46.170;7.222;2023-06-19T02:38:49;4.80;;;3.67;;
13580;SDS011;6861;46.170;7.222;2023-06-19T02:41:17;6.32;;;3.72;;
13580;SDS011;6861;46.170;7.222;2023-06-19T02:43:45;4.47;;;3.50;;
13580;SDS011;6861;46.170;7.222;2023-06-19T02:46:14;5.35;;;4.13;;
13580;SDS011;6861;46.170;7.222;2023-06-19T02:48:43;5.93;;;3.95;;
13580;SDS011;6861;46.170;7.222;2023-06-19T02:51:11;5.45;;;3.78;;
13580;SDS011;6861;46.170;7.222;2023-06-19T02:53:39;4.20;;;3.80;;
13580;SDS011;6861;46.170;7.222;2023-06-19T02:56:08;4.93;;;3.55;;
13580;SDS011;6861;46.170;7.222;2023-06-19T02:58:36;3.50;;;3.20;;
13580;SDS011;6861;46.170;7.222;2023-06-19T03:01:05;3.80;;;3.50;;
13580;SDS011;6861;46.170;7.222;2023-06-19T03:03:35;7.03;;;4.18;;
13580;SDS011;6861;46.170;7.222;2023-06-19T03:06:06;6.93;;;4.30;;
13580;SDS011;6861;46.170;7.222;2023-06-19T03:08:35;7.93;;;4.20;;
13580;SDS011;6861;46.170;7.222;2023-06-19T03:11:03;5.22;;;4.50;;
13580;SDS011;6861;46.170;7.222;2023-06-19T03:13:33;5.53;;;4.50;;
13580;SDS011;6861;46.170;7.222;2023-06-19T03:16:10;5.47;;;4.35;;
13580;SDS011;6861;46.170;7.222;2023-06-19T03:18:39;7.35;;;4.18;;
13580;SDS011;6861;46.170;7.222;2023-06-19T03:21:08;6.25;;;4.20;;
13580;SDS011;6861;46.170;7.222;2023-06-19T03:23:36;6.05;;;4.20;;
13580;SDS011;6861;46.170;7.222;2023-06-19T03:26:04;4.93;;;4.40;;
13580;SDS011;6861;46.170;7.222;2023-06-19T03:28:32;5.68;;;3.80;;
13580;SDS011;6861;46.170;7.222;2023-06-19T03:31:01;10.05;;;4.15;;
13580;SDS011;6861;46.170;7.222;2023-06-19T03:33:29;5.22;;;3.92;;
13580;SDS011;6861;46.170;7.222;2023-06-19T03:35:57;6.75;;;4.38;;
13580;SDS011;6861;46.170;7.222;2023-06-19T03:38:27;4.50;;;4.10;;
13580;SDS011;6861;46.170;7.222;2023-06-19T03:40:55;4.70;;;3.85;;
13580;SDS011;6861;46.170;7.222;2023-06-19T03:43:23;4.82;;;4.32;;
13580;SDS011;6861;46.170;7.222;2023-06-19T03:45:51;4.80;;;3.80;;
13580;SDS011;6861;46.170;7.222;2023-06-19T03:48:19;5.07;;;3.95;;
13580;SDS011;6861;46.170;7.222;2023-06-19T03:50:47;6.25;;;4.15;;
13580;SDS011;6861;46.170;7.222;2023-06-19T03:53:15;6.40;;;4.13;;
13580;SDS011;6861;46.170;7.222;2023-06-19T03:55:45;7.95;;;5.00;;
13580;SDS011;6861;46.170;7.222;2023-06-19T03:58:13;5.78;;;4.55;;
13580;SDS011;6861;46.170;7.222;2023-06-19T04:00:41;5.80;;;4.80;;
13580;SDS011;6861;46.170;7.222;2023-06-19T04:03:10;4.82;;;4.35;;
13580;SDS011;6861;46.170;7.222;2023-06-19T04:05:39;4.95;;;4.28;;
13580;SDS011;6861;46.170;7.222;2023-06-19T04:08:08;6.32;;;4.80;;
13580;SDS011;6861;46.170;7.222;2023-06-19T04:10:36;6.85;;;4.50;;
13580;SDS011;6861;46.170;7.222;2023-06-19T04:13:06;8.10;;;4.35;;
13580;SDS011;6861;46.170;7.222;2023-06-19T04:15:34;8.73;;;4.72;;
13580;SDS011;6861;46.170;7.222;2023-06-19T04:18:04;9.38;;;4.80;;
13580;SDS011;6861;46.170;7.222;2023-06-19T04:20:32;6.95;;;5.15;;
13580;SDS011;6861;46.170;7.222;2023-06-19T04:23:00;5.45;;;4.65;;
13580;SDS011;6861;46.170;7.222;2023-06-19T04:25:28;11.27;;;4.78;;
13580;SDS011;6861;46.170;7.222;2023-06-19T04:27:56;5.18;;;4.50;;
13580;SDS011;6861;46.170;7.222;2023-06-19T04:30:26;5.93;;;4.60;;
13580;SDS011;6861;46.170;7.222;2023-06-19T04:32:54;6.45;;;4.50;;
13580;SDS011;6861;46.170;7.222;2023-06-19T04:35:22;5.57;;;4.97;;
13580;SDS011;6861;46.170;7.222;2023-06-19T04:37:51;6.18;;;4.85;;
13580;SDS011;6861;46.170;7.222;2023-06-19T04:40:21;6.78;;;4.88;;
13580;SDS011;6861;46.170;7.222;2023-06-19T04:42:50;6.40;;;4.70;;
13580;SDS011;6861;46.170;7.222;2023-06-19T04:45:20;5.20;;;4.70;;
13580;SDS011;6861;46.170;7.222;2023-06-19T04:47:49;4.68;;;4.10;;
13580;SDS011;6861;46.170;7.222;2023-06-19T04:50:19;6.07;;;4.22;;
13580;SDS011;6861;46.170;7.222;2023-06-19T04:52:48;5.80;;;4.30;;
13580;SDS011;6861;46.170;7.222;2023-06-19T04:55:18;6.82;;;4.78;;
13580;SDS011;6861;46.170;7.222;2023-06-19T04:57:46;5.93;;;4.55;;
13580;SDS011;6861;46.170;7.222;2023-06-19T05:00:15;6.20;;;4.78;;
13580;SDS011;6861;46.170;7.222;2023-06-19T05:02:46;8.20;;;4.78;;
13580;SDS011;6861;46.170;7.222;2023-06-19T05:05:16;7.55;;;4.78;;
13580;SDS011;6861;46.170;7.222;2023-06-19T05:07:48;10.70;;;4.85;;
13580;SDS011;6861;46.170;7.222;2023-06-19T05:10:17;6.03;;;4.15;;
13580;SDS011;6861;46.170;7.222;2023-06-19T05:12:45;5.03;;;4.22;;
13580;SDS011;6861;46.170;7.222;2023-06-19T05:15:14;4.90;;;4.20;;
13580;SDS011;6861;46.170;7.222;2023-06-19T05:17:42;5.07;;;4.57;;
13580;SDS011;6861;46.170;7.222;2023-06-19T05:20:13;4.70;;;4.30;;
13580;SDS011;6861;46.170;7.222;2023-06-19T05:22:43;8.85;;;5.18;;
13580;SDS011;6861;46.170;7.222;2023-06-19T05:25:11;10.88;;;4.80;;
13580;SDS011;6861;46.170;7.222;2023-06-19T05:27:39;10.15;;;4.82;;
13580;SDS011;6861;46.170;7.222;2023-06-19T05:30:08;7.35;;;4.45;;
13580;SDS011;6861;46.170;7.222;2023-06-19T05:32:36;7.55;;;4.75;;
13580;SDS011;6861;46.170;7.222;2023-06-19T05:35:05;6.18;;;4.80;;
13580;SDS011;6861;46.170;7.222;2023-06-19T05:37:34;9.60;;;4.80;;
13580;SDS011;6861;46.170;7.222;2023-06-19T05:40:04;5.43;;;4.43;;
13580;SDS011;6861;46.170;7.222;2023-06-19T05:42:33;6.53;;;4.60;;
13580;SDS011;6861;46.170;7.222;2023-06-19T05:45:01;4.75;;;4.22;;
13580;SDS011;6861;46.170;7.222;2023-06-19T05:47:29;6.60;;;4.65;;
13580;SDS011;6861;46.170;7.222;2023-06-19T05:49:57;11.43;;;4.60;;
13580;SDS011;6861;46.170;7.222;2023-06-19T05:52:25;7.93;;;4.65;;
13580;SDS011;6861;46.170;7.222;2023-06-19T05:54:53;7.03;;;4.32;;
13580;SDS011;6861;46.170;7.222;2023-06-19T05:57:23;8.05;;;4.25;;
13580;SDS011;6861;46.170;7.222;2023-06-19T05:59:51;5.78;;;3.85;;
13580;SDS011;6861;46.170;7.222;2023-06-19T06:02:19;4.55;;;4.15;;
13580;SDS011;6861;46.170;7.222;2023-06-19T06:04:48;4.78;;;4.32;;
13580;SDS011;6861;46.170;7.222;2023-06-19T06:07:16;4.80;;;3.65;;
13580;SDS011;6861;46.170;7.222;2023-06-19T06:09:44;4.60;;;4.20;;
13580;SDS011;6861;46.170;7.222;2023-06-19T06:12:12;4.63;;;3.80;;
13580;SDS011;6861;46.170;7.222;2023-06-19T06:14:42;5.20;;;4.25;;
13580;SDS011;6861;46.170;7.222;2023-06-19T06:17:10;4.40;;;3.85;;
13580;SDS011;6861;46.170;7.222;2023-06-19T06:19:38;6.15;;;4.43;;
13580;SDS011;6861;46.170;7.222;2023-06-19T06:22:06;6.78;;;4.03;;
13580;SDS011;6861;46.170;7.222;2023-06-19T06:24:34;4.90;;;4.38;;
13580;SDS011;6861;46.170;7.222;2023-06-19T06:27:02;6.10;;;4.07;;
13580;SDS011;6861;46.170;7.222;2023-06-19T06:29:31;7.70;;;4.60;;
13580;SDS011;6861;46.170;7.222;2023-06-19T06:32:04;5.88;;;4.50;;
13580;SDS011;6861;46.170;7.222;2023-06-19T06:34:34;6.03;;;4.32;;
13580;SDS011;6861;46.170;7.222;2023-06-19T06:37:02;7.00;;;4.38;;
13580;SDS011;6861;46.170;7.222;2023-06-19T06:39:32;5.15;;;4.25;;
13580;SDS011;6861;46.170;7.222;2023-06-19T06:42:00;6.05;;;3.88;;
13580;SDS011;6861;46.170;7.222;2023-06-19T06:44:29;7.95;;;4.10;;
13580;SDS011;6861;46.170;7.222;2023-06-19T06:46:57;5.28;;;3.95;;
13580;SDS011;6861;46.170;7.222;2023-06-19T06:49:26;4.78;;;3.65;;
13580;SDS011;6861;46.170;7.222;2023-06-19T06:51:54;6.43;;;4.10;;
13580;SDS011;6861;46.170;7.222;2023-06-19T06:54:23;6.10;;;4.45;;
13580;SDS011;6861;46.170;7.222;2023-06-19T06:56:51;4.90;;;4.10;;
13580;SDS011;6861;46.170;7.222;2023-06-19T06:59:23;4.95;;;4.32;;
13580;SDS011;6861;46.170;7.222;2023-06-19T07:01:51;6.00;;;4.15;;
13580;SDS011;6861;46.170;7.222;2023-06-19T07:04:20;4.95;;;4.07;;
13580;SDS011;6861;46.170;7.222;2023-06-19T07:06:50;5.97;;;3.78;;
13580;SDS011;6861;46.170;7.222;2023-06-19T07:09:18;8.30;;;4.05;;
13580;SDS011;6861;46.170;7.222;2023-06-19T07:11:48;4.63;;;3.70;;
13580;SDS011;6861;46.170;7.222;2023-06-19T07:14:19;7.65;;;4.13;;
13580;SDS011;6861;46.170;7.222;2023-06-19T07:16:48;5.22;;;3.80;;
13580;SDS011;6861;46.170;7.222;2023-06-19T07:19:16;7.60;;;4.22;;
13580;SDS011;6861;46.170;7.222;2023-06-19T07:21:45;5.75;;;4.00;;
13580;SDS011;6861;46.170;7.222;2023-06-19T07:24:14;5.82;;;4.10;;
13580;SDS011;6861;46.170;7.222;2023-06-19T07:26:42;4.82;;;4.10;;
13580;SDS011;6861;46.170;7.222;2023-06-19T07:29:10;6.20;;;4.22;;
13580;SDS011;6861;46.170;7.222;2023-06-19T07:31:39;4.40;;;3.95;;
13580;SDS011;6861;46.170;7.222;2023-06-19T07:34:09;16.13;;;4.32;;
13580;SDS011;6861;46.170;7.222;2023-06-19T07:36:37;6.88;;;4.10;;
13580;SDS011;6861;46.170;7.222;2023-06-19T07:39:05;4.72;;;3.88;;
13580;SDS011;6861;46.170;7.222;2023-06-19T07:41:35;7.05;;;4.22;;
13580;SDS011;6861;46.170;7.222;2023-06-19T07:44:03;7.75;;;3.58;;
13580;SDS011;6861;46.170;7.222;2023-06-19T07:46:32;4.18;;;3.78;;
13580;SDS011;6861;46.170;7.222;2023-06-19T07:49:00;4.18;;;3.75;;
13580;SDS011;6861;46.170;7.222;2023-06-19T07:51:28;5.13;;;3.90;;
13580;SDS011;6861;46.170;7.222;2023-06-19T07:53:56;4.30;;;3.90;;
13580;SDS011;6861;46.170;7.222;2023-06-19T07:56:24;4.50;;;4.10;;
13580;SDS011;6861;46.170;7.222;2023-06-19T07:58:54;5.07;;;4.00;;
13580;SDS011;6861;46.170;7.222;2023-06-19T08:01:22;5.15;;;3.88;;
13580;SDS011;6861;46.170;7.222;2023-06-19T08:03:50;6.40;;;3.88;;
13580;SDS011;6861;46.170;7.222;2023-06-19T08:06:19;4.38;;;3.72;;
13580;SDS011;6861;46.170;7.222;2023-06-19T08:08:47;7.75;;;4.50;;
13580;SDS011;6861;46.170;7.222;2023-06-19T08:11:15;4.78;;;4.00;;
13580;SDS011;6861;46.170;7.222;2023-06-19T08:13:43;4.30;;;3.90;;
13580;SDS011;6861;46.170;7.222;2023-06-19T08:16:13;4.45;;;3.45;;
13580;SDS011;6861;46.170;7.222;2023-06-19T08:18:41;4.95;;;3.90;;
13580;SDS011;6861;46.170;7.222;2023-06-19T08:21:10;6.50;;;3.60;;
13580;SDS011;6861;46.170;7.222;2023-06-19T08:23:38;5.13;;;3.60;;
13580;SDS011;6861;46.170;7.222;2023-06-19T08:26:10;3.78;;;3.38;;
13580;SDS011;6861;46.170;7.222;2023-06-19T08:28:38;4.90;;;3.65;;
13580;SDS011;6861;46.170;7.222;2023-06-19T08:31:08;5.00;;;3.80;;
13580;SDS011;6861;46.170;7.222;2023-06-19T08:33:37;4.53;;;3.40;;
13580;SDS011;6861;46.170;7.222;2023-06-19T08:36:06;3.85;;;3.35;;
13580;SDS011;6861;46.170;7.222;2023-06-19T08:38:34;4.68;;;3.47;;
13580;SDS011;6861;46.170;7.222;2023-06-19T08:41:02;4.68;;;3.45;;
13580;SDS011;6861;46.170;7.222;2023-06-19T08:43:31;4.45;;;3.33;;
13580;SDS011;6861;46.170;7.222;2023-06-19T08:46:02;4.47;;;3.60;;
13580;SDS011;6861;46.170;7.222;2023-06-19T08:48:37;6.70;;;3.58;;
13580;SDS011;6861;46.170;7.222;2023-06-19T08:51:06;4.82;;;3.80;;
13580;SDS011;6861;46.170;7.222;2023-06-19T08:53:36;4.55;;;3.50;;
13580;SDS011;6861;46.170;7.222;2023-06-19T08:56:11;4.90;;;3.58;;
13580;SDS011;6861;46.170;7.222;2023-06-19T08:58:39;4.10;;;3.70;;
13580;SDS011;6861;46.170;7.222;2023-06-19T09:01:07;5.20;;;3.53;;
13580;SDS011;6861;46.170;7.222;2023-06-19T09:03:35;4.38;;;3.35;;
13580;SDS011;6861;46.170;7.222;2023-06-19T09:06:05;4.75;;;3.20;;
13580;SDS011;6861;46.170;7.222;2023-06-19T09:08:34;3.75;;;3.45;;
13580;SDS011;6861;46.170;7.222;2023-06-19T09:11:04;2.75;;;2.55;;
13580;SDS011;6861;46.170;7.222;2023-06-19T09:13:36;2.97;;;2.72;;
13580;SDS011;6861;46.170;7.222;2023-06-19T09:16:07;2.83;;;2.53;;
13580;SDS011;6861;46.170;7.222;2023-06-19T09:18:42;3.78;;;3.13;;
13580;SDS011;6861;46.170;7.222;2023-06-19T09:21:16;7.60;;;3.70;;
13580;SDS011;6861;46.170;7.222;2023-06-19T09:23:45;4.43;;;3.10;;
13580;SDS011;6861;46.170;7.222;2023-06-19T09:26:14;3.17;;;2.83;;
13580;SDS011;6861;46.170;7.222;2023-06-19T09:28:44;3.72;;;2.90;;
13580;SDS011;6861;46.170;7.222;2023-06-19T09:31:13;3.90;;;2.63;;
13580;SDS011;6861;46.170;7.222;2023-06-19T09:33:41;2.55;;;2.35;;
13580;SDS011;6861;46.170;7.222;2023-06-19T09:36:10;4.65;;;2.90;;
13580;SDS011;6861;46.170;7.222;2023-06-19T09:38:39;4.90;;;2.78;;
13580;SDS011;6861;46.170;7.222;2023-06-19T09:41:08;2.80;;;2.60;;
13580;SDS011;6861;46.170;7.222;2023-06-19T09:43:37;5.03;;;2.88;;
13580;SDS011;6861;46.170;7.222;2023-06-19T09:46:06;3.78;;;2.90;;
13580;SDS011;6861;46.170;7.222;2023-06-19T09:48:34;3.55;;;3.05;;
13580;SDS011;6861;46.170;7.222;2023-06-19T09:51:09;5.90;;;3.00;;
13580;SDS011;6861;46.170;7.222;2023-06-19T09:53:41;6.60;;;3.20;;
13580;SDS011;6861;46.170;7.222;2023-06-19T09:56:11;4.05;;;2.92;;
13580;SDS011;6861;46.170;7.222;2023-06-19T09:58:40;3.10;;;2.80;;
13580;SDS011;6861;46.170;7.222;2023-06-19T10:01:10;4.45;;;3.13;;
13580;SDS011;6861;46.170;7.222;2023-06-19T10:03:39;3.22;;;2.80;;
13580;SDS011;6861;46.170;7.222;2023-06-19T10:06:12;4.60;;;2.80;;
13580;SDS011;6861;46.170;7.222;2023-06-19T10:08:43;7.05;;;2.85;;
13580;SDS011;6861;46.170;7.222;2023-06-19T10:11:13;2.88;;;2.60;;
13580;SDS011;6861;46.170;7.222;2023-06-19T10:13:42;3.63;;;3.10;;
13580;SDS011;6861;46.170;7.222;2023-06-19T10:16:19;5.47;;;2.72;;
13580;SDS011;6861;46.170;7.222;2023-06-19T10:18:47;3.63;;;3.33;;
13580;SDS011;6861;46.170;7.222;2023-06-19T10:21:16;4.43;;;3.05;;
13580;SDS011;6861;46.170;7.222;2023-06-19T10:23:53;4.00;;;3.00;;
13580;SDS011;6861;46.170;7.222;2023-06-19T10:26:29;3.47;;;2.80;;
13580;SDS011;6861;46.170;7.222;2023-06-19T10:28:59;6.18;;;3.03;;
13580;SDS011;6861;46.170;7.222;2023-06-19T10:31:28;4.55;;;3.20;;
13580;SDS011;6861;46.170;7.222;2023-06-19T10:33:56;3.85;;;3.50;;
13580;SDS011;6861;46.170;7.222;2023-06-19T10:36:25;5.47;;;3.60;;
13580;SDS011;6861;46.170;7.222;2023-06-19T10:38:55;4.65;;;3.50;;
13580;SDS011;6861;46.170;7.222;2023-06-19T10:41:24;4.72;;;3.47;;
13580;SDS011;6861;46.170;7.222;2023-06-19T10:43:53;4.35;;;3.72;;
13580;SDS011;6861;46.170;7.222;2023-06-19T10:46:23;5.60;;;3.85;;
13580;SDS011;6861;46.170;7.222;2023-06-19T10:48:52;4.63;;;3.60;;
13580;SDS011;6861;46.170;7.222;2023-06-19T10:51:28;4.25;;;3.70;;
13580;SDS011;6861;46.170;7.222;2023-06-19T10:53:57;5.00;;;3.75;;
13580;SDS011;6861;46.170;7.222;2023-06-19T10:56:25;4.07;;;3.38;;
13580;SDS011;6861;46.170;7.222;2023-06-19T10:58:57;5.55;;;3.88;;
13580;SDS011;6861;46.170;7.222;2023-06-19T11:01:33;4.68;;;3.60;;
13580;SDS011;6861;46.170;7.222;2023-06-19T11:04:03;8.77;;;4.13;;
13580;SDS011;6861;46.170;7.222;2023-06-19T11:06:32;7.97;;;4.18;;
13580;SDS011;6861;46.170;7.222;2023-06-19T11:09:05;4.68;;;4.18;;
13580;SDS011;6861;46.170;7.222;2023-06-19T11:11:35;6.40;;;4.25;;
13580;SDS011;6861;46.170;7.222;2023-06-19T11:14:04;4.85;;;4.32;;
13580;SDS011;6861;46.170;7.222;2023-06-19T11:16:32;5.00;;;4.20;;
13580;SDS011;6861;46.170;7.222;2023-06-19T11:19:01;7.82;;;3.85;;
13580;SDS011;6861;46.170;7.222;2023-06-19T11:21:30;4.72;;;4.25;;
13580;SDS011;6861;46.170;7.222;2023-06-19T11:23:59;5.20;;;4.10;;
13580;SDS011;6861;46.170;7.222;2023-06-19T11:26:29;5.47;;;4.57;;
13580;SDS011;6861;46.170;7.222;2023-06-19T11:28:57;5.97;;;4.25;;
13580;SDS011;6861;46.170;7.222;2023-06-19T11:31:26;7.13;;;4.68;;
13580;SDS011;6861;46.170;7.222;2023-06-19T11:33:58;6.53;;;5.22;;
13580;SDS011;6861;46.170;7.222;2023-06-19T11:36:28;5.60;;;4.95;;
13580;SDS011;6861;46.170;7.222;2023-06-19T11:38:57;6.47;;;4.80;;
13580;SDS011;6861;46.170;7.222;2023-06-19T11:41:25;5.05;;;4.57;;
13580;SDS011;6861;46.170;7.222;2023-06-19T11:43:59;5.75;;;5.15;;
13580;SDS011;6861;46.170;7.222;2023-06-19T11:46:28;6.28;;;4.70;;
13580;SDS011;6861;46.170;7.222;2023-06-19T11:49:06;6.00;;;4.95;;
13580;SDS011;6861;46.170;7.222;2023-06-19T11:51:35;9.40;;;5.13;;
13580;SDS011;6861;46.170;7.222;2023-06-19T11:54:05;7.13;;;5.13;;
13580;SDS011;6861;46.170;7.222;2023-06-19T11:56:34;6.18;;;4.78;;
13580;SDS011;6861;46.170;7.222;2023-06-19T11:59:04;5.63;;;4.68;;
13580;SDS011;6861;46.170;7.222;2023-06-19T12:01:33;5.68;;;4.65;;
13580;SDS011;6861;46.170;7.222;2023-06-19T12:04:03;7.47;;;4.88;;
13580;SDS011;6861;46.170;7.222;2023-06-19T12:06:32;9.15;;;5.07;;
13580;SDS011;6861;46.170;7.222;2023-06-19T12:09:02;5.72;;;5.15;;
13580;SDS011;6861;46.170;7.222;2023-06-19T12:11:31;6.35;;;4.45;;
13580;SDS011;6861;46.170;7.222;2023-06-19T12:13:59;5.00;;;4.60;;
13580;SDS011;6861;46.170;7.222;2023-06-19T12:16:29;5.50;;;5.00;;
13580;SDS011;6861;46.170;7.222;2023-06-19T12:18:57;5.38;;;4.72;;
13580;SDS011;6861;46.170;7.222;2023-06-19T12:21:25;5.35;;;4.85;;
13580;SDS011;6861;46.170;7.222;2023-06-19T12:24:04;5.28;;;4.78;;
13580;SDS011;6861;46.170;7.222;2023-06-19T12:26:34;5.35;;;4.85;;
13580;SDS011;6861;46.170;7.222;2023-06-19T12:29:04;7.57;;;4.97;;
13580;SDS011;6861;46.170;7.222;2023-06-19T12:31:34;6.45;;;4.82;;
13580;SDS011;6861;46.170;7.222;2023-06-19T12:34:03;5.82;;;4.88;;
13580;SDS011;6861;46.170;7.222;2023-06-19T12:36:52;5.32;;;4.10;;
13580;SDS011;6861;46.170;7.222;2023-06-19T12:39:20;7.00;;;4.40;;
13580;SDS011;6861;46.170;7.222;2023-06-19T12:41:49;5.05;;;4.22;;
13580;SDS011;6861;46.170;7.222;2023-06-19T12:44:17;5.13;;;4.60;;
13580;SDS011;6861;46.170;7.222;2023-06-19T12:46:47;4.53;;;4.13;;
13580;SDS011;6861;46.170;7.222;2023-06-19T12:49:15;5.15;;;4.53;;
13580;SDS011;6861;46.170;7.222;2023-06-19T12:51:43;7.70;;;5.05;;
13580;SDS011;6861;46.170;7.222;2023-06-19T12:54:12;5.50;;;4.72;;
13580;SDS011;6861;46.170;7.222;2023-06-19T12:56:40;5.97;;;4.53;;
13580;SDS011;6861;46.170;7.222;2023-06-19T12:59:08;6.07;;;4.30;;
13580;SDS011;6861;46.170;7.222;2023-06-19T13:01:36;5.05;;;4.57;;
13580;SDS011;6861;46.170;7.222;2023-06-19T13:04:06;4.85;;;4.35;;
13580;SDS011;6861;46.170;7.222;2023-06-19T13:06:35;5.03;;;4.32;;
13580;SDS011;6861;46.170;7.222;2023-06-19T13:09:04;4.70;;;4.20;;
13580;SDS011;6861;46.170;7.222;2023-06-19T13:11:32;5.00;;;4.60;;
13580;SDS011;6861;46.170;7.222;2023-06-19T13:14:01;6.80;;;4.28;;
13580;SDS011;6861;46.170;7.222;2023-06-19T13:16:30;5.30;;;3.97;;
13580;SDS011;6861;46.170;7.222;2023-06-19T13:19:13;11.80;;;4.32;;
13580;SDS011;6861;46.170;7.222;2023-06-19T13:21:41;6.07;;;4.00;;
13580;SDS011;6861;46.170;7.222;2023-06-19T13:24:10;4.70;;;3.58;;
13580;SDS011;6861;46.170;7.222;2023-06-19T13:26:38;4.18;;;3.28;;
13580;SDS011;6861;46.170;7.222;2023-06-19T13:29:06;5.68;;;3.67;;
13580;SDS011;6861;46.170;7.222;2023-06-19T13:31:35;4.25;;;3.85;;
13580;SDS011;6861;46.170;7.222;2023-06-19T13:34:03;3.65;;;3.35;;
13580;SDS011;6861;46.170;7.222;2023-06-19T13:36:33;4.40;;;4.00;;
13580;SDS011;6861;46.170;7.222;2023-06-19T13:39:01;5.10;;;3.88;;
13580;SDS011;6861;46.170;7.222;2023-06-19T13:41:30;4.43;;;3.63;;
13580;SDS011;6861;46.170;7.222;2023-06-19T13:43:59;6.18;;;3.70;;
13580;SDS011;6861;46.170;7.222;2023-06-19T13:46:28;4.45;;;3.55;;
13580;SDS011;6861;46.170;7.222;2023-06-19T13:48:58;5.45;;;4.00;;
13580;SDS011;6861;46.170;7.222;2023-06-19T13:51:27;7.72;;;4.00;;
13580;SDS011;6861;46.170;7.222;2023-06-19T13:53:57;5.43;;;3.95;;
13580;SDS011;6861;46.170;7.222;2023-06-19T13:56:25;8.40;;;3.83;;
13580;SDS011;6861;46.170;7.222;2023-06-19T13:58:53;5.45;;;3.70;;
13580;SDS011;6861;46.170;7.222;2023-06-19T14:01:21;5.18;;;3.60;;
13580;SDS011;6861;46.170;7.222;2023-06-19T14:03:52;5.65;;;3.78;;
13580;SDS011;6861;46.170;7.222;2023-06-19T14:06:20;3.50;;;3.20;;
13580;SDS011;6861;46.170;7.222;2023-06-19T14:08:48;4.53;;;3.75;;
13580;SDS011;6861;46.170;7.222;2023-06-19T14:11:18;4.20;;;3.60;;
13580;SDS011;6861;46.170;7.222;2023-06-19T14:13:46;4.03;;;3.63;;
13580;SDS011;6861;46.170;7.222;2023-06-19T14:16:15;4.10;;;3.70;;
13580;SDS011;6861;46.170;7.222;2023-06-19T14:18:44;5.93;;;3.58;;
13580;SDS011;6861;46.170;7.222;2023-06-19T14:21:12;4.90;;;3.35;;
13580;SDS011;6861;46.170;7.222;2023-06-19T14:23:40;4.57;;;3.40;;
13580;SDS011;6861;46.170;7.222;2023-06-19T14:26:10;7.05;;;3.65;;
13580;SDS011;6861;46.170;7.222;2023-06-19T14:28:40;4.05;;;3.47;;
13580;SDS011;6861;46.170;7.222;2023-06-19T14:31:08;5.38;;;3.53;;
13580;SDS011;6861;46.170;7.222;2023-06-19T14:33:36;3.38;;;3.08;;
13580;SDS011;6861;46.170;7.222;2023-06-19T14:36:05;4.15;;;3.30;;
13580;SDS011;6861;46.170;7.222;2023-06-19T14:38:33;3.20;;;2.90;;
13580;SDS011;6861;46.170;7.222;2023-06-19T14:41:02;5.43;;;3.10;;
13580;SDS011;6861;46.170;7.222;2023-06-19T14:43:30;4.65;;;3.10;;
13580;SDS011;6861;46.170;7.222;2023-06-19T14:46:01;4.00;;;2.97;;
13580;SDS011;6861;46.170;7.222;2023-06-19T14:48:30;4.20;;;3.22;;
13580;SDS011;6861;46.170;7.222;2023-06-19T14:51:00;4.20;;;2.97;;
13580;SDS011;6861;46.170;7.222;2023-06-19T14:53:28;5.20;;;4.00;;
13580;SDS011;6861;46.170;7.222;2023-06-19T14:55:56;5.25;;;3.85;;
13580;SDS011;6861;46.170;7.222;2023-06-19T14:58:24;8.15;;;3.80;;
13580;SDS011;6861;46.170;7.222;2023-06-19T15:00:55;5.57;;;4.05;;
13580;SDS011;6861;46.170;7.222;2023-06-19T15:03:25;4.38;;;3.33;;
13580;SDS011;6861;46.170;7.222;2023-06-19T15:05:54;4.05;;;3.10;;
13580;SDS011;6861;46.170;7.222;2023-06-19T15:08:22;5.22;;;3.33;;
13580;SDS011;6861;46.170;7.222;2023-06-19T15:10:50;4.05;;;3.13;;
13580;SDS011;6861;46.170;7.222;2023-06-19T15:13:19;5.78;;;3.15;;